Time;durP1;ratioP1;P1;durP2;ratioP2;P2;SDS_P1;SDS_P2;PMS_P1;PMS_P2;Temp;Humidity;BMP_temperature;BMP_pressure;BME280_temperature;BME280_humidity;BME280_pressure;Samples;Min_cycle;Max_cycle;Signal;HPM_P1;HPM_P2
2022/03/30 00:01:06;;;;;;;21.57;15.87;;;;;;;;;;5048244;28;20988;-62
2022/03/30 00:03:31;;;;;;;8.97;8.10;;;22.50;64.50;;;;;;5048877;28;20199;-63
2022/03/30 00:05:57;;;;;;;14.00;10.87;;;;;;;;;;5048897;28;20508;-62
2022/03/30 00:08:23;;;;;;;39.13;34.70;;;22.40;66.40;;;;;;5048903;28;20206;-63
2022/03/30 00:10:49;;;;;;;10.67;9.07;;;;;;;;;;5048800;28;20911;-62
2022/03/30 00:13:15;;;;;;;10.17;9.07;;;;;;;;;;5048354;28;20211;-63
2022/03/30 00:15:41;;;;;;;8.43;7.50;;;22.70;54.10;;;;;;5041915;28;20904;-62
2022/03/30 00:18:07;;;;;;;9.90;8.63;;;22.50;70.80;;;;;;5029323;28;20492;-62
2022/03/30 00:20:33;;;;;;;11.50;10.00;;;22.60;55.50;;;;;;5028908;28;20415;-62
2022/03/30 00:22:58;;;;;;;8.87;8.00;;;22.40;68.40;;;;;;5028969;28;20185;-62
2022/03/30 00:25:24;;;;;;;8.97;8.07;;;;;;;;;;5029123;28;20200;-63
2022/03/30 00:27:50;;;;;;;8.93;8.10;;;;;;;;;;5029157;28;20242;-63
2022/03/30 00:30:18;;;;;;;12.87;11.37;;;22.50;70.90;;;;;;5038104;28;20422;-63
2022/03/30 00:32:44;;;;;;;14.77;12.73;;;;;;;;;;5045518;28;20463;-63
2022/03/30 00:35:10;;;;;;;17.53;13.60;;;22.50;49.30;;;;;;5028846;28;20935;-63
2022/03/30 00:37:36;;;;;;;18.13;14.47;;;22.40;69.00;;;;;;5028885;28;20419;-62
2022/03/30 00:40:07;;;;;;;13.90;12.00;;;22.50;49.80;;;;;;5028713;28;20514;-63
2022/03/30 00:42:33;;;;;;;17.03;14.53;;;;;;;;;;5028620;28;20203;-62
2022/03/30 00:44:59;;;;;;;14.20;12.07;;;;;;;;;;5045804;28;20438;-62
2022/03/30 00:47:26;;;;;;;16.10;12.63;;;22.40;52.90;;;;;;5046204;28;20644;-62
2022/03/30 00:49:53;;;;;;;13.37;10.90;;;22.60;68.70;;;;;;5046738;28;20902;-62
2022/03/30 00:52:20;;;;;;;8.40;7.20;;;22.50;49.70;;;;;;5051632;28;20486;-62
2022/03/30 00:54:50;;;;;;;11.30;9.37;;;22.60;73.20;;;;;;5071980;28;20441;-62
2022/03/30 00:57:21;;;;;;;9.90;8.90;;;22.50;49.80;;;;;;5072537;28;20405;-63
2022/03/30 00:59:47;;;;;;;16.93;13.10;;;22.50;48.60;;;;;;5071718;28;20549;-61
2022/03/30 01:02:14;;;;;;;20.20;16.23;;;22.10;54.80;;;;;;5057357;28;20787;-62
2022/03/30 01:04:39;;;;;;;20.17;16.07;;;22.40;59.60;;;;;;5041120;28;20488;-62
2022/03/30 01:07:05;;;;;;;18.90;14.03;;;22.40;49.70;;;;;;5032426;28;20771;-63
2022/03/30 01:09:31;;;;;;;12.00;10.07;;;;;;;;;;5030952;28;20180;-63
2022/03/30 01:11:57;;;;;;;13.20;10.77;;;;;;;;;;5040787;28;20422;-63
2022/03/30 01:14:24;;;;;;;35.00;30.47;;;;;;;;;;5051142;28;20442;-62
2022/03/30 01:16:50;;;;;;;14.00;11.53;;;22.30;73.90;;;;;;5051808;28;20487;-63
2022/03/30 01:19:16;;;;;;;8.67;7.93;;;;;;;;;;5039659;28;20493;-63
2022/03/30 01:21:42;;;;;;;12.70;11.10;;;22.40;58.80;;;;;;5031998;28;20411;-62
2022/03/30 01:24:10;;;;;;;8.77;7.97;;;22.40;72.30;;;;;;5031966;28;20439;-63
2022/03/30 01:26:36;;;;;;;7.00;6.40;;;22.50;71.10;;;;;;5031810;28;20422;-63
2022/03/30 01:34:34;;;;;;;11.37;8.87;;;;;;;;;;5047654;28;20485;-63
2022/03/30 01:37:01;;;;;;;14.83;13.20;;;22.60;50.80;;;;;;5051763;28;20395;-62
2022/03/30 01:39:27;;;;;;;9.23;8.20;;;;;;;;;;5046116;28;20408;-62
2022/03/30 01:41:53;;;;;;;6.43;5.87;;;;;;;;;;5031505;28;20469;-62
2022/03/30 01:44:19;;;;;;;6.30;5.70;;;22.50;58.20;;;;;;5031495;28;20451;-63
2022/03/30 01:46:45;;;;;;;6.40;5.90;;;;;;;;;;5031413;28;20438;-63
2022/03/30 01:49:10;;;;;;;7.43;6.80;;;22.30;70.50;;;;;;5048735;28;20191;-63
2022/03/30 01:51:36;;;;;;;6.83;6.30;;;;;;;;;;5051151;28;20398;-63
2022/03/30 01:54:02;;;;;;;6.20;5.70;;;22.40;60.50;;;;;;5051207;28;20212;-63
2022/03/30 01:56:28;;;;;;;7.83;7.03;;;22.30;71.70;;;;;;5051281;28;20494;-62
2022/03/30 01:58:54;;;;;;;6.17;5.77;;;;;;;;;;5050214;28;20418;-62
2022/03/30 02:01:20;;;;;;;4.97;4.67;;;;;;;;;;5051223;28;20168;-62
2022/03/30 02:03:46;;;;;;;5.10;4.80;;;;;;;;;;5050618;28;20449;-62
2022/03/30 02:06:12;;;;;;;5.33;4.87;;;;;;;;;;5051359;28;20419;-63
2022/03/30 02:08:38;;;;;;;7.40;6.80;;;22.40;69.00;;;;;;5050834;28;20433;-62
2022/03/30 02:11:04;;;;;;;5.20;4.80;;;22.40;58.00;;;;;;5050943;28;20425;-63
2022/03/30 02:13:30;;;;;;;7.07;6.47;;;;;;;;;;5034439;28;20463;-62
2022/03/30 02:15:56;;;;;;;5.87;5.47;;;;;;;;;;5030933;28;20176;-62
2022/03/30 02:18:22;;;;;;;8.67;7.00;;;22.30;69.80;;;;;;5045480;28;20465;-63
2022/03/30 02:20:48;;;;;;;7.03;6.50;;;22.50;70.30;;;;;;5050737;28;20403;-63
2022/03/30 02:23:14;;;;;;;8.70;7.87;;;22.40;69.90;;;;;;5047220;28;20184;-63
2022/03/30 02:25:40;;;;;;;7.13;6.43;;;;;;;;;;5048490;28;20422;-62
2022/03/30 02:28:06;;;;;;;6.33;5.73;;;;;;;;;;5049084;28;20507;-62
2022/03/30 02:30:32;;;;;;;5.73;5.23;;;;;;;;;;5050353;28;20738;-62
2022/03/30 02:32:58;;;;;;;7.30;6.70;;;22.60;70.70;;;;;;5048921;28;20493;-62
2022/03/30 02:35:23;;;;;;;7.50;6.90;;;22.10;49.10;;;;;;5030481;28;21021;-62
2022/03/30 02:37:54;;;;;;;8.47;7.67;;;;;;;;;;5030384;28;20653;-63
2022/03/30 02:40:20;;;;;;;8.60;7.67;;;;;;;;;;5030023;28;20263;-63
2022/03/30 02:42:46;;;;;;;8.20;7.40;;;;;;;;;;5030107;28;20493;-63
2022/03/30 02:45:12;;;;;;;8.13;7.33;;;;;;;;;;5048472;28;20756;-62
2022/03/30 02:50:23;;;;;;;9.67;7.90;;;22.40;71.70;;;;;;5034056;28;20458;-63
2022/03/30 02:52:48;;;;;;;5.73;5.30;;;20.90;68.70;;;;;;5045984;28;20672;-62
2022/03/30 02:55:14;;;;;;;11.07;9.90;;;22.50;69.40;;;;;;5050055;28;20610;-62
2022/03/30 02:57:40;;;;;;;12.03;10.73;;;;;;;;;;5049977;28;20194;-62
2022/03/30 03:00:07;;;;;;;8.60;7.80;;;22.50;67.70;;;;;;5050008;28;20180;-62
2022/03/30 03:02:34;;;;;;;12.30;10.80;;;22.40;73.50;;;;;;5050087;28;20422;-62
2022/03/30 03:05:00;;;;;;;7.97;7.20;;;22.20;69.00;;;;;;5032838;28;20940;-63
2022/03/30 03:07:26;;;;;;;15.20;13.63;;;;;;;;;;5029749;28;20885;-63
2022/03/30 03:09:52;;;;;;;24.43;20.73;;;;;;;;;;5029512;28;20514;-63
2022/03/30 03:12:18;;;;;;;18.67;16.30;;;22.40;48.70;;;;;;5041099;28;20438;-62
2022/03/30 03:14:44;;;;;;;10.73;9.00;;;;;;;;;;5035110;28;20455;-62
2022/03/30 03:17:10;;;;;;;24.20;21.10;;;;;;;;;;5030400;28;20407;-62
2022/03/30 03:19:37;;;;;;;8.23;7.37;;;;;;;;;;5049149;28;20810;-63
2022/03/30 03:22:04;;;;;;;7.30;6.60;;;;;;;;;;5049855;28;20407;-62
2022/03/30 03:24:30;;;;;;;13.67;11.33;;;;;;;;;;5049557;28;20513;-63
2022/03/30 03:26:56;;;;;;;8.43;7.63;;;;;;;;;;5047941;28;20600;-63
2022/03/30 03:29:22;;;;;;;7.83;7.20;;;;;;;;;;5049535;28;20410;-62
2022/03/30 03:31:48;;;;;;;11.70;9.70;;;;;;;;;;5049206;28;20406;-62
2022/03/30 03:34:14;;;;;;;9.30;8.50;;;;;;;;;;5038900;28;20868;-62
2022/03/30 03:36:39;;;;;;;12.40;10.90;;;;;;;;;;5032847;28;20449;-62
2022/03/30 03:39:06;;;;;;;7.53;6.73;;;;;;;;;;5045535;28;20418;-63
2022/03/30 03:41:32;;;;;;;7.90;7.03;;;;;;;;;;5049402;28;20444;-63
2022/03/30 03:43:57;;;;;;;15.53;10.80;;;;;;;;;;5049471;28;20465;-63
2022/03/30 03:46:24;;;;;;;10.70;9.60;;;;;;;;;;5049320;28;20411;-62
2022/03/30 03:48:50;;;;;;;26.93;18.70;;;;;;;;;;5041679;28;20514;-62
2022/03/30 03:51:17;;;;;;;26.77;20.87;;;;;;;;;;5048894;28;20525;-63
2022/03/30 03:53:43;;;;;;;15.87;11.83;;;;;;;;;;5048983;28;20837;-62
2022/03/30 03:56:09;;;;;;;18.33;13.90;;;;;;;;;;5048463;28;20514;-62
2022/03/30 03:58:35;;;;;;;22.47;16.20;;;22.30;70.30;;;;;;5036787;28;20427;-62
2022/03/30 04:01:00;;;;;;;28.37;22.20;;;22.20;68.40;;;;;;5044730;28;20414;-62
2022/03/30 04:03:26;;;;;;;20.63;13.73;;;22.10;71.10;;;;;;5047001;28;20666;-61
2022/03/30 04:05:51;;;;;;;11.03;9.47;;;22.20;70.50;;;;;;5047113;28;20188;-62
2022/03/30 04:08:17;;;;;;;17.23;11.70;;;22.30;67.90;;;;;;5049367;28;20259;-63
2022/03/30 04:10:45;;;;;;;13.17;9.47;;;;;;;;;;5049093;28;20207;-63
2022/03/30 04:13:11;;;;;;;18.90;14.50;;;22.20;67.90;;;;;;5030555;28;20197;-62
2022/03/30 04:15:37;;;;;;;12.03;8.60;;;22.30;48.70;;;;;;5029600;28;20454;-62
2022/03/30 04:18:04;;;;;;;9.00;8.13;;;22.20;73.80;;;;;;5036620;28;20294;-62
2022/03/30 04:20:30;;;;;;;12.30;8.70;;;;;;;;;;5047955;28;20418;-62
2022/03/30 04:22:56;;;;;;;11.10;8.73;;;;;;;;;;5053042;28;20433;-62
2022/03/30 04:25:23;;;;;;;15.30;9.27;;;;;;;;;;5051940;28;20896;-62
2022/03/30 04:27:51;;;;;;;16.03;9.93;;;22.30;68.70;;;;;;5053172;28;20465;-61
2022/03/30 04:30:19;;;;;;;16.70;11.30;;;22.40;69.40;;;;;;5052989;28;20419;-62
2022/03/30 04:32:45;;;;;;;17.73;12.70;;;;;;;;;;5052912;28;20464;-63
2022/03/30 04:35:12;;;;;;;18.80;11.20;;;22.30;50.00;;;;;;5052840;28;20426;-63
2022/03/30 04:37:39;;;;;;;18.90;11.00;;;20.40;49.10;;;;;;5052871;28;20493;-63
2022/03/30 04:40:06;;;;;;;15.23;9.47;;;22.30;54.50;;;;;;5052732;28;20793;-63
2022/03/30 04:42:32;;;;;;;13.93;9.10;;;;;;;;;;5053104;28;20418;-63
2022/03/30 04:44:58;;;;;;;16.73;9.13;;;;;;;;;;5052926;28;20426;-63
2022/03/30 04:47:24;;;;;;;21.57;12.57;;;;;;;;;;5052861;28;20410;-62
2022/03/30 04:49:49;;;;;;;13.67;10.93;;;22.10;57.50;;;;;;5052563;28;20411;-63
2022/03/30 04:52:15;;;;;;;14.90;10.03;;;;;;;;;;5056268;28;20575;-63
2022/03/30 04:54:41;;;;;;;18.30;10.33;;;22.30;59.50;;;;;;5072774;28;20226;-63
2022/03/30 04:57:07;;;;;;;13.43;9.70;;;;;;;;;;5072841;28;20496;-63
2022/03/30 04:59:33;;;;;;;14.17;9.70;;;;;;;;;;5072638;28;20171;-62
2022/03/30 05:01:59;;;;;;;13.23;9.60;;;22.30;70.70;;;;;;5072313;28;20993;-63
2022/03/30 05:04:25;;;;;;;20.23;10.37;;;;;;;;;;5072647;28;20489;-63
2022/03/30 05:06:51;;;;;;;15.20;9.33;;;;;;;;;;5072659;28;20909;-63
2022/03/30 05:09:17;;;;;;;12.33;8.27;;;;;;;;;;5072347;28;20444;-63
2022/03/30 05:11:43;;;;;;;13.70;8.23;;;;;;;;;;5072300;28;20402;-63
2022/03/30 05:14:09;;;;;;;10.27;9.20;;;22.20;50.40;;;;;;5072126;28;21239;-63
2022/03/30 05:16:35;;;;;;;15.00;8.90;;;;;;;;;;5071926;28;20417;-63
2022/03/30 05:19:02;;;;;;;13.00;9.00;;;22.30;53.10;;;;;;5071873;28;20897;-63
2022/03/30 05:21:29;;;;;;;13.07;7.73;;;22.20;51.10;;;;;;5072255;28;20409;-63
2022/03/30 05:23:55;;;;;;;15.87;10.20;;;;;;;;;;5072068;28;20430;-63
2022/03/30 05:26:21;;;;;;;12.40;8.37;;;21.90;67.30;;;;;;5072647;28;20409;-63
2022/03/30 05:28:46;;;;;;;11.10;8.40;;;22.00;68.90;;;;;;5072843;28;20421;-63
2022/03/30 05:31:12;;;;;;;9.80;7.30;;;22.00;62.20;;;;;;5072476;28;20174;-64
2022/03/30 05:33:38;;;;;;;15.53;7.90;;;;;;;;;;5072492;28;20215;-63
2022/03/30 05:36:04;;;;;;;10.23;7.13;;;21.90;55.00;;;;;;5063574;28;20195;-63
2022/03/30 05:38:30;;;;;;;13.00;7.97;;;22.10;57.60;;;;;;5051577;28;20418;-63
2022/03/30 05:40:56;;;;;;;12.90;8.93;;;;;;;;;;5051617;28;20411;-63
2022/03/30 05:43:25;;;;;;;11.90;8.47;;;;;;;;;;5051494;28;20431;-62
2022/03/30 05:45:51;;;;;;;14.60;9.50;;;;;;;;;;5051490;28;20413;-63
2022/03/30 05:48:17;;;;;;;11.20;8.03;;;22.30;64.20;;;;;;5051520;28;20776;-63
2022/03/30 05:50:43;;;;;;;13.60;7.63;;;;;;;;;;5051598;28;20477;-62
2022/03/30 05:53:09;;;;;;;13.13;8.80;;;;;;;;;;5062070;28;20457;-63
2022/03/30 05:55:35;;;;;;;14.07;8.90;;;;;;;;;;5071436;28;20402;-63
2022/03/30 05:58:02;;;;;;;13.23;7.63;;;22.20;58.70;;;;;;5071473;28;20401;-63
2022/03/30 06:00:28;;;;;;;14.67;8.80;;;22.20;74.50;;;;;;5071204;28;20418;-63
2022/03/30 06:02:54;;;;;;;13.23;9.20;;;22.40;58.00;;;;;;5071294;28;20414;-63
2022/03/30 06:05:20;;;;;;;9.50;7.70;;;22.30;55.50;;;;;;5071508;28;20437;-63
2022/03/30 06:07:46;;;;;;;9.20;7.10;;;;;;;;;;5071385;28;20574;-62
2022/03/30 06:10:12;;;;;;;13.73;7.90;;;;;;;;;;5070965;28;20379;-63
2022/03/30 06:12:38;;;;;;;9.40;7.87;;;;;;;;;;5071167;28;20556;-63
2022/03/30 06:15:04;;;;;;;15.93;10.57;;;22.10;63.60;;;;;;5070875;28;20425;-63
2022/03/30 06:17:30;;;;;;;11.73;8.53;;;;;;;;;;5071196;28;20442;-63
2022/03/30 06:19:59;;;;;;;15.90;11.53;;;;;;;;;;5071097;28;20443;-63
2022/03/30 06:22:29;;;;;;;13.20;9.67;;;;;;;;;;5071260;28;20406;-63
2022/03/30 06:24:55;;;;;;;13.93;8.83;;;22.30;69.00;;;;;;5070854;28;20835;-62
2022/03/30 06:27:22;;;;;;;13.97;8.67;;;;;;;;;;5070947;28;20493;-63
2022/03/30 06:29:48;;;;;;;9.93;8.70;;;22.10;49.90;;;;;;5070871;28;20198;-62
2022/03/30 06:32:14;;;;;;;10.90;8.60;;;22.00;58.60;;;;;;5070785;28;20484;-63
2022/03/30 06:34:40;;;;;;;9.83;7.57;;;22.10;73.30;;;;;;5070856;28;20998;-63
2022/03/30 06:37:06;;;;;;;8.07;7.07;;;22.10;56.90;;;;;;5052235;28;20233;-63
2022/03/30 06:39:33;;;;;;;9.30;8.00;;;22.70;50.40;;;;;;5050617;28;20421;-63
2022/03/30 06:41:59;;;;;;;8.83;7.93;;;;;;;;;;5049175;28;20488;-62
2022/03/30 06:44:25;;;;;;;11.90;7.90;;;22.10;64.20;;;;;;5049808;28;20465;-63
2022/03/30 06:46:51;;;;;;;9.73;7.30;;;;;;;;;;5050878;28;20443;-63
2022/03/30 06:49:17;;;;;;;8.50;7.57;;;;;;;;;;5050637;28;20859;-62
2022/03/30 06:51:43;;;;;;;14.40;10.67;;;;;;;;;;5050497;28;20415;-63
2022/03/30 06:54:09;;;;;;;13.50;10.33;;;;;;;;;;5069384;28;20464;-63
2022/03/30 06:56:35;;;;;;;14.47;10.43;;;22.20;63.10;;;;;;5070421;28;20410;-63
2022/03/30 06:59:00;;;;;;;18.83;13.00;;;22.20;74.20;;;;;;5070696;28;20409;-62
2022/03/30 07:01:26;;;;;;;15.40;10.73;;;22.00;73.20;;;;;;5070418;28;20709;-63
2022/03/30 07:03:52;;;;;;;13.80;9.47;;;;;;;;;;5070490;28;20202;-62
2022/03/30 07:06:18;;;;;;;13.73;10.80;;;;;;;;;;5070421;28;20264;-62
2022/03/30 07:11:28;;;;;;;11.67;9.77;;;;;;;;;;5070405;28;20413;-63
2022/03/30 07:13:56;;;;;;;17.57;10.90;;;;;;;;;;5070015;28;20469;-62
2022/03/30 07:16:23;;;;;;;9.87;8.07;;;;;;;;;;5070054;28;20536;-63
2022/03/30 07:18:49;;;;;;;15.40;9.10;;;22.10;63.20;;;;;;5069958;28;20426;-63
2022/03/30 07:21:15;;;;;;;17.30;12.87;;;;;;;;;;5069972;28;20608;-63
2022/03/30 07:23:41;;;;;;;17.47;11.90;;;;;;;;;;5069753;28;20437;-63
2022/03/30 07:26:06;;;;;;;12.17;10.33;;;21.80;69.00;;;;;;5069927;28;20508;-63
2022/03/30 07:28:35;;;;;;;12.77;10.70;;;22.10;51.20;;;;;;5069895;28;20409;-63
2022/03/30 07:31:01;;;;;;;13.87;10.90;;;22.20;71.40;;;;;;5069776;28;20266;-63
2022/03/30 07:33:27;;;;;;;21.30;10.83;;;22.10;74.30;;;;;;5069669;28;20551;-63
2022/03/30 07:35:52;;;;;;;11.83;9.83;;;22.00;72.80;;;;;;5069915;28;20875;-63
2022/03/30 07:38:19;;;;;;;10.03;8.67;;;22.00;69.60;;;;;;5069596;28;20270;-63
2022/03/30 07:40:46;;;;;;;12.70;11.27;;;22.10;50.30;;;;;;5069668;28;20262;-62
2022/03/30 07:43:13;;;;;;;13.60;11.00;;;22.10;50.10;;;;;;5069699;28;20421;-63
2022/03/30 07:45:40;;;;;;;15.43;11.20;;;22.00;68.70;;;;;;5069507;28;20424;-62
2022/03/30 07:48:08;;;;;;;12.73;9.10;;;22.00;49.20;;;;;;5069538;28;20414;-62
2022/03/30 07:50:34;;;;;;;13.37;10.27;;;;;;;;;;5029467;28;20510;-62
2022/03/30 07:53:00;;;;;;;14.80;10.90;;;;;;;;;;5048863;28;20912;-62
2022/03/30 07:55:28;;;;;;;12.80;10.30;;;22.10;68.70;;;;;;5069817;28;20433;-62
2022/03/30 07:57:54;;;;;;;13.93;10.80;;;;;;;;;;5069767;28;20405;-63
2022/03/30 08:00:21;;;;;;;12.27;9.27;;;22.00;71.90;;;;;;5069301;28;20887;-62
2022/03/30 08:02:48;;;;;;;12.57;10.30;;;22.10;74.10;;;;;;5069759;28;20421;-61
2022/03/30 08:05:15;;;;;;;13.43;9.40;;;22.20;71.50;;;;;;5069460;28;20773;-63
2022/03/30 08:07:43;;;;;;;15.17;9.97;;;22.10;68.70;;;;;;5069732;28;20422;-63
2022/03/30 08:10:09;;;;;;;13.13;9.60;;;22.10;50.10;;;;;;5069107;28;20494;-63
2022/03/30 08:12:36;;;;;;;14.20;10.70;;;22.00;69.40;;;;;;5068057;28;20515;-63
2022/03/30 08:15:02;;;;;;;12.87;10.23;;;22.00;72.70;;;;;;5069143;28;20437;-63
2022/03/30 08:17:29;;;;;;;14.00;11.13;;;21.90;72.00;;;;;;5069670;28;20846;-63
2022/03/30 08:19:57;;;;;;;18.40;13.20;;;22.10;68.90;;;;;;5068907;28;20426;-63
2022/03/30 08:22:26;;;;;;;16.30;11.27;;;;;;;;;;5069541;28;20539;-62
2022/03/30 08:24:53;;;;;;;14.40;10.73;;;21.70;68.70;;;;;;5069192;28;20800;-63
2022/03/30 08:27:21;;;;;;;19.57;13.17;;;22.00;50.20;;;;;;5069345;28;20792;-63
2022/03/30 08:29:49;;;;;;;25.30;14.87;;;22.00;50.00;;;;;;5069028;28;20498;-63
2022/03/30 08:32:16;;;;;;;21.70;17.57;;;22.10;50.10;;;;;;5068949;28;20432;-63
2022/03/30 08:34:42;;;;;;;12.07;10.70;;;22.00;49.60;;;;;;5068799;28;20453;-63
2022/03/30 08:37:08;;;;;;;18.77;15.97;;;22.10;70.70;;;;;;5069278;28;20408;-63
2022/03/30 08:39:35;;;;;;;26.93;19.03;;;;;;;;;;5068910;28;20785;-63
2022/03/30 08:42:03;;;;;;;24.20;14.73;;;22.00;49.90;;;;;;5068823;28;20492;-63
2022/03/30 08:44:30;;;;;;;17.60;13.17;;;22.10;69.60;;;;;;5068793;28;20765;-63
2022/03/30 08:46:56;;;;;;;11.00;9.53;;;;;;;;;;5068787;28;20425;-63
2022/03/30 08:49:21;;;;;;;9.00;7.80;;;21.90;68.50;;;;;;5058395;28;20798;-62
2022/03/30 08:51:49;;;;;;;13.00;9.90;;;22.00;69.90;;;;;;5048847;28;20496;-63
2022/03/30 08:54:17;;;;;;;15.63;12.00;;;22.00;50.00;;;;;;5028950;28;20232;-63
2022/03/30 08:56:43;;;;;;;17.63;12.73;;;22.10;68.80;;;;;;5029145;28;20760;-63
2022/03/30 08:59:11;;;;;;;17.80;13.30;;;22.00;50.20;;;;;;5028907;28;20848;-63
2022/03/30 09:01:39;;;;;;;65.33;59.23;;;22.00;74.20;;;;;;5029180;28;20792;-63
2022/03/30 09:04:09;;;;;;;21.00;18.40;;;22.10;50.00;;;;;;5028721;28;20430;-63
2022/03/30 09:06:49;;;;;;;25.47;20.37;;;21.50;47.60;;;;;;5029182;28;20467;-62
2022/03/30 09:09:25;;;;;;;41.63;35.93;;;22.10;51.00;;;;;;5032549;28;20499;-63
2022/03/30 09:11:55;;;;;;;17.03;15.23;;;22.20;71.70;;;;;;5032411;28;20411;-62
2022/03/30 09:14:23;;;;;;;28.20;20.60;;;22.10;72.70;;;;;;5032463;28;20510;-63
2022/03/30 09:16:51;;;;;;;26.30;23.60;;;22.30;50.10;;;;;;5032487;28;20935;-62
2022/03/30 09:19:20;;;;;;;25.33;15.33;;;22.10;70.50;;;;;;5032328;28;20451;-63
2022/03/30 09:21:57;;;;;;;16.70;12.87;;;21.90;73.90;;;;;;5032377;28;20431;-63
2022/03/30 09:24:32;;;;;;;19.10;15.37;;;21.90;49.00;;;;;;5032069;28;20888;-63
2022/03/30 09:26:59;;;;;;;30.90;27.70;;;22.00;63.50;;;;;;5032143;28;20422;-63
2022/03/30 09:29:27;;;;;;;15.93;12.47;;;22.00;63.20;;;;;;5032243;28;20407;-63
2022/03/30 09:31:53;;;;;;;14.30;12.00;;;;;;;;;;5031855;28;20425;-62
2022/03/30 09:34:19;;;;;;;19.33;14.53;;;22.00;50.40;;;;;;5031816;28;20459;-62
2022/03/30 09:36:48;;;;;;;17.10;12.13;;;22.20;50.10;;;;;;5032010;28;20460;-63
2022/03/30 09:39:34;;;;;;;13.80;11.90;;;22.00;47.80;;;;;;5031756;28;20438;-62
2022/03/30 09:42:01;;;;;;;12.27;10.00;;;22.10;73.20;;;;;;5031785;28;20494;-63
2022/03/30 09:44:28;;;;;;;16.70;13.43;;;22.00;74.20;;;;;;5031734;28;20505;-63
2022/03/30 09:47:03;;;;;;;16.53;13.93;;;21.90;72.10;;;;;;5031775;28;20406;-63
2022/03/30 09:49:39;;;;;;;15.70;12.70;;;22.00;47.80;;;;;;5042814;28;20773;-63
2022/03/30 09:52:12;;;;;;;21.23;15.97;;;22.00;70.10;;;;;;5051657;28;20418;-62
2022/03/30 09:54:43;;;;;;;17.13;13.00;;;22.00;72.40;;;;;;5051410;28;20511;-62
2022/03/30 09:57:14;;;;;;;10.70;9.20;;;21.40;47.60;;;;;;5051707;28;20459;-62
2022/03/30 09:59:59;;;;;;;16.73;11.23;;;22.00;47.80;;;;;;5051560;28;20481;-62
2022/03/30 10:02:31;;;;;;;13.77;11.03;;;22.00;47.90;;;;;;5051606;28;20421;-63
2022/03/30 10:04:57;;;;;;;18.67;14.23;;;21.90;68.40;;;;;;5051468;28;20438;-63
2022/03/30 10:07:23;;;;;;;17.10;12.63;;;21.40;48.80;;;;;;5051409;28;20543;-63
2022/03/30 10:09:49;;;;;;;16.17;14.17;;;22.00;50.20;;;;;;5051090;28;20415;-63
2022/03/30 10:12:19;;;;;;;10.70;9.60;;;21.80;72.20;;;;;;5051172;28;20946;-63
2022/03/30 10:14:47;;;;;;;15.17;12.33;;;22.10;74.10;;;;;;5051659;28;20805;-63
2022/03/30 10:17:14;;;;;;;25.30;17.13;;;;;;;;;;5051430;28;20467;-63
2022/03/30 10:19:44;;;;;;;15.67;12.90;;;22.00;72.40;;;;;;5050075;28;20448;-63
2022/03/30 10:22:19;;;;;;;18.63;13.60;;;22.00;50.00;;;;;;5051253;28;20418;-63
2022/03/30 10:25:03;;;;;;;18.30;13.67;;;21.80;73.90;;;;;;5051020;28;20437;-63
2022/03/30 10:27:36;;;;;;;14.83;12.13;;;22.10;72.60;;;;;;5051106;28;20414;-63
2022/03/30 10:30:06;;;;;;;16.83;12.33;;;21.90;49.90;;;;;;5051011;28;20437;-62
2022/03/30 10:32:34;;;;;;;10.43;8.80;;;21.90;50.00;;;;;;5050932;28;20418;-63
2022/03/30 10:35:13;;;;;;;11.80;9.27;;;22.10;69.00;;;;;;5050796;28;20426;-63
2022/03/30 10:37:45;;;;;;;12.90;11.57;;;21.90;49.90;;;;;;5050716;28;20463;-63
2022/03/30 10:40:18;;;;;;;13.90;12.30;;;21.90;68.70;;;;;;5050545;28;20940;-63
2022/03/30 10:42:47;;;;;;;13.83;11.60;;;21.90;72.60;;;;;;5051083;28;20414;-63
2022/03/30 10:45:36;;;;;;;12.93;11.37;;;22.10;70.20;;;;;;5050825;28;20853;-63
2022/03/30 10:48:07;;;;;;;14.43;11.53;;;21.90;69.50;;;;;;5050678;28;20922;-63
2022/03/30 10:50:41;;;;;;;13.93;10.90;;;22.00;72.30;;;;;;5030633;28;20433;-63
2022/03/30 10:53:35;;;;;;;17.87;13.17;;;21.90;73.80;;;;;;5051721;28;20460;-63
2022/03/30 10:56:15;;;;;;;12.60;10.60;;;21.90;65.90;;;;;;5070492;28;20898;-63
2022/03/30 10:58:53;;;;;;;13.73;10.33;;;22.10;47.90;;;;;;5070411;28;20414;-63
2022/03/30 11:01:28;;;;;;;12.47;9.57;;;21.80;68.80;;;;;;5070210;28;20505;-62
2022/03/30 11:04:25;;;;;;;14.57;10.33;;;21.90;47.80;;;;;;5070185;28;20432;-62
2022/03/30 11:06:53;;;;;;;11.43;9.23;;;21.90;47.80;;;;;;5065540;28;20441;-63
2022/03/30 11:09:25;;;;;;;10.37;9.23;;;21.90;47.80;;;;;;5070079;28;20406;-62
2022/03/30 11:12:14;;;;;;;9.20;8.27;;;22.50;48.10;;;;;;5069904;28;20413;-63
2022/03/30 11:14:43;;;;;;;31.03;27.50;;;21.90;73.80;;;;;;5069990;28;20883;-62
2022/03/30 11:17:29;;;;;;;20.30;15.17;;;22.00;73.90;;;;;;5069928;28;20507;-62
2022/03/30 11:19:57;;;;;;;9.23;8.30;;;;;;;;;;5069814;28;20429;-62
2022/03/30 11:22:22;;;;;;;8.30;7.47;;;22.10;73.60;;;;;;5070140;28;20844;-62
2022/03/30 11:25:07;;;;;;;35.00;30.67;;;21.80;72.10;;;;;;5069988;28;20453;-62
2022/03/30 11:27:32;;;;;;;28.07;25.03;;;22.00;72.70;;;;;;5069916;28;20171;-62
2022/03/30 11:30:15;;;;;;;17.77;14.23;;;21.70;69.10;;;;;;5069563;28;20412;-63
2022/03/30 11:32:55;;;;;;;20.53;13.10;;;21.80;71.70;;;;;;5069725;28;20536;-62
2022/03/30 11:35:25;;;;;;;27.30;24.40;;;22.40;50.30;;;;;;5069572;28;20774;-62
2022/03/30 11:38:04;;;;;;;12.97;11.17;;;21.80;68.80;;;;;;5069737;28;20463;-63
2022/03/30 11:40:35;;;;;;;14.27;11.20;;;21.80;49.80;;;;;;5069594;28;20401;-63
2022/03/30 11:43:01;;;;;;;14.63;12.10;;;;;;;;;;5069791;28;20409;-62
2022/03/30 11:45:29;;;;;;;12.73;11.33;;;21.90;57.90;;;;;;5069836;28;20402;-63
2022/03/30 11:48:06;;;;;;;14.07;11.43;;;21.90;74.00;;;;;;5069747;28;20409;-63
2022/03/30 11:50:40;;;;;;;9.47;8.47;;;22.00;54.00;;;;;;5029708;28;20896;-63
2022/03/30 11:53:21;;;;;;;7.73;6.93;;;21.90;47.60;;;;;;5050943;28;20535;-63
2022/03/30 11:55:48;;;;;;;9.13;8.27;;;22.00;66.80;;;;;;5070033;28;20406;-63
2022/03/30 11:58:24;;;;;;;9.30;7.90;;;21.80;57.30;;;;;;5070503;28;20402;-63
2022/03/30 12:00:52;;;;;;;9.57;7.90;;;21.80;69.10;;;;;;5069327;28;20801;-63
2022/03/30 12:03:18;;;;;;;8.97;8.07;;;21.90;48.90;;;;;;5069418;28;20413;-63
2022/03/30 12:05:44;;;;;;;7.23;6.63;;;21.90;59.60;;;;;;5069506;28;20919;-64
2022/03/30 12:08:09;;;;;;;10.23;8.43;;;21.90;69.00;;;;;;5069409;28;20409;-63
2022/03/30 12:10:35;;;;;;;11.07;9.83;;;;;;;;;;5069231;28;20262;-63
2022/03/30 12:13:01;;;;;;;8.77;7.80;;;;;;;;;;5069379;28;20507;-63
2022/03/30 12:15:27;;;;;;;9.50;8.50;;;22.00;72.40;;;;;;5069178;28;20436;-63
2022/03/30 12:17:56;;;;;;;11.53;9.87;;;21.90;68.40;;;;;;5069217;28;20454;-63
2022/03/30 12:20:33;;;;;;;14.17;10.50;;;21.90;49.80;;;;;;5069292;28;20408;-63
2022/03/30 12:23:04;;;;;;;14.80;10.17;;;21.90;49.80;;;;;;5069515;28;20500;-63
2022/03/30 12:25:35;;;;;;;10.77;8.90;;;21.80;49.80;;;;;;5069265;28;20413;-63
2022/03/30 12:28:02;;;;;;;8.47;7.57;;;21.80;71.70;;;;;;5069245;28;20946;-63
2022/03/30 12:30:33;;;;;;;9.30;8.40;;;21.90;47.80;;;;;;5068943;28;20424;-64
2022/03/30 12:32:59;;;;;;;8.37;7.33;;;;;;;;;;5069081;28;20532;-63
2022/03/30 12:35:35;;;;;;;9.10;7.90;;;21.90;49.90;;;;;;5068885;28;20508;-63
2022/03/30 12:38:10;;;;;;;7.67;6.97;;;21.90;47.60;;;;;;5069121;28;20493;-63
2022/03/30 12:40:38;;;;;;;9.93;8.93;;;21.90;50.00;;;;;;5068610;28;20480;-63
2022/03/30 12:43:04;;;;;;;7.53;6.83;;;21.80;72.60;;;;;;5072078;28;20439;-63
2022/03/30 12:45:30;;;;;;;7.70;7.00;;;;;;;;;;5073147;28;20405;-63
2022/03/30 12:47:59;;;;;;;7.47;6.63;;;;;;;;;;5073102;28;20527;-63
2022/03/30 12:50:32;;;;;;;8.17;7.37;;;22.00;68.70;;;;;;5053772;28;20471;-63
2022/03/30 12:53:15;;;;;;;7.53;6.80;;;21.90;49.80;;;;;;5062030;28;20781;-63
2022/03/30 12:55:42;;;;;;;8.60;6.40;;;22.00;72.80;;;;;;5072828;28;20424;-63
2022/03/30 12:58:16;;;;;;;9.57;8.53;;;21.90;49.90;;;;;;5072786;28;20918;-63
2022/03/30 13:00:47;;;;;;;10.07;8.90;;;21.70;47.50;;;;;;5072451;28;20413;-63
2022/03/30 13:03:12;;;;;;;9.07;8.10;;;21.90;69.20;;;;;;5072456;28;20410;-63
2022/03/30 13:05:41;;;;;;;8.10;7.37;;;21.90;69.10;;;;;;5072594;28;20401;-63
2022/03/30 13:08:12;;;;;;;5.50;5.20;;;21.90;47.80;;;;;;5072463;28;20262;-63
2022/03/30 13:10:54;;;;;;;7.50;6.90;;;21.90;47.70;;;;;;5072179;28;20903;-63
2022/03/30 13:13:23;;;;;;;8.33;7.57;;;21.90;70.10;;;;;;5072334;28;20613;-63
2022/03/30 13:15:49;;;;;;;7.10;6.50;;;;;;;;;;5072182;28;20511;-63
2022/03/30 13:18:18;;;;;;;9.93;8.90;;;21.70;55.00;;;;;;5071843;28;20414;-63
2022/03/30 13:20:57;;;;;;;8.73;7.80;;;21.90;49.80;;;;;;5071642;28;20821;-63
2022/03/30 13:23:34;;;;;;;8.67;7.80;;;21.90;49.80;;;;;;5072002;28;20437;-63
2022/03/30 13:26:00;;;;;;;6.90;6.10;;;;;;;;;;5071889;28;20417;-63